createdAt,value
2023-03-29T00:01:59.047Z,510.00
2023-03-29T00:05:59.276Z,513.00
2023-03-29T00:09:59.400Z,511.00
2023-03-29T00:13:59.636Z,514.00
2023-03-29T00:18:00.347Z,519.00
2023-03-29T00:22:00.029Z,516.00
2023-03-29T00:26:00.310Z,513.00
2023-03-29T00:30:00.471Z,516.00
2023-03-29T00:34:00.418Z,520.00
2023-03-29T00:38:00.785Z,513.00
2023-03-29T00:42:00.789Z,511.00
2023-03-29T00:46:00.443Z,520.00
2023-03-29T00:50:00.324Z,517.00
2023-03-29T00:54:00.322Z,513.00
2023-03-29T00:58:00.292Z,518.00
2023-03-29T01:02:00.342Z,524.00
2023-03-29T01:06:00.221Z,514.00
2023-03-29T01:10:00.300Z,518.00
2023-03-29T01:14:00.287Z,524.00
2023-03-29T01:18:00.825Z,518.00
2023-03-29T01:22:00.793Z,517.00
2023-03-29T01:26:00.939Z,521.00
2023-03-29T01:30:01.334Z,512.00
2023-03-29T01:34:01.328Z,504.00
2023-03-29T01:38:01.319Z,515.00
2023-03-29T01:42:01.355Z,513.00
2023-03-29T01:46:01.027Z,517.00
2023-03-29T01:50:01.007Z,508.00
2023-03-29T01:54:01.326Z,522.00
2023-03-29T01:58:00.919Z,505.00
2023-03-29T02:02:00.883Z,516.00
2023-03-29T02:06:01.342Z,518.00
2023-03-29T02:10:00.785Z,526.00
2023-03-29T02:14:00.821Z,525.00
2023-03-29T02:18:00.870Z,526.00
2023-03-29T02:22:00.699Z,512.00
2023-03-29T02:26:00.838Z,526.00
2023-03-29T02:30:00.820Z,509.00
2023-03-29T02:34:00.848Z,521.00
2023-03-29T02:38:00.805Z,510.00
2023-03-29T02:42:00.532Z,519.00
2023-03-29T02:46:00.837Z,512.00
2023-03-29T02:50:00.851Z,518.00
2023-03-29T02:54:00.855Z,515.00
2023-03-29T02:58:00.847Z,519.00
2023-03-29T03:02:01.089Z,521.00
2023-03-29T03:06:01.342Z,519.00
2023-03-29T03:10:00.937Z,524.00
2023-03-29T03:14:01.372Z,520.00
2023-03-29T03:18:00.943Z,510.00
2023-03-29T03:22:00.859Z,520.00
2023-03-29T03:26:00.847Z,519.00
2023-03-29T03:30:00.765Z,521.00
2023-03-29T03:34:00.853Z,523.00
2023-03-29T03:38:00.697Z,504.00
2023-03-29T03:42:00.911Z,525.00
2023-03-29T03:46:01.424Z,505.00
2023-03-29T03:50:01.336Z,519.00
2023-03-29T03:54:01.876Z,512.00
2023-03-29T03:58:01.744Z,512.00
2023-03-29T04:02:02.476Z,520.00
2023-03-29T04:06:02.388Z,514.00
2023-03-29T04:10:02.871Z,504.00
2023-03-29T04:14:02.601Z,512.00
2023-03-29T04:18:02.925Z,527.00
2023-03-29T04:22:03.372Z,515.00
2023-03-29T04:26:03.357Z,515.00
2023-03-29T04:30:02.986Z,523.00
2023-03-29T04:34:03.414Z,525.00
2023-03-29T04:38:02.883Z,524.00
2023-03-29T04:42:02.876Z,518.00
2023-03-29T04:46:02.987Z,499.00
2023-03-29T04:50:02.897Z,502.00
2023-03-29T04:54:02.768Z,519.00
2023-03-29T04:58:02.881Z,532.00
2023-03-29T05:02:02.881Z,527.00
2023-03-29T05:06:03.013Z,542.00
2023-03-29T05:10:03.389Z,535.00
2023-03-29T05:14:09.474Z,532.00
2023-03-29T05:18:03.461Z,531.00
2023-03-29T05:22:03.408Z,534.00
2023-03-29T05:26:03.463Z,531.00
2023-03-29T05:30:03.412Z,540.00
2023-03-29T05:34:03.156Z,535.00
2023-03-29T05:38:03.429Z,527.00
2023-03-29T05:42:03.916Z,529.00
2023-03-29T05:46:03.449Z,539.00
2023-03-29T05:50:03.002Z,568.00
2023-03-29T05:54:03.418Z,572.00
2023-03-29T05:58:03.419Z,600.00
2023-03-29T06:02:03.464Z,607.00
2023-03-29T06:06:03.928Z,609.00
2023-03-29T06:10:03.631Z,615.00
2023-03-29T06:14:03.928Z,611.00
2023-03-29T06:18:04.497Z,608.00
2023-03-29T06:22:04.436Z,605.00
2023-03-29T06:26:04.926Z,605.00
2023-03-29T06:30:04.698Z,604.00
2023-03-29T06:34:04.932Z,605.00
2023-03-29T06:38:05.421Z,600.00
2023-03-29T06:42:16.894Z,596.00
2023-03-29T06:46:06.461Z,596.00
2023-03-29T06:50:05.215Z,603.00
2023-03-29T06:54:05.449Z,605.00
2023-03-29T06:58:05.948Z,575.00
2023-03-29T07:02:05.959Z,544.00
2023-03-29T07:06:05.925Z,543.00
2023-03-29T07:10:06.442Z,553.00
2023-03-29T07:14:06.463Z,555.00
2023-03-29T07:18:06.494Z,557.00
2023-03-29T07:22:06.447Z,530.00
2023-03-29T07:26:06.248Z,503.00
2023-03-29T07:30:06.450Z,505.00
2023-03-29T07:34:06.508Z,500.00
2023-03-29T07:38:06.963Z,500.00
2023-03-29T07:42:06.975Z,501.00
2023-03-29T07:46:06.931Z,451.00
2023-03-29T07:50:06.967Z,580.00
2023-03-29T07:54:07.450Z,640.00
2023-03-29T07:58:07.450Z,908.00
2023-03-29T08:02:07.230Z,1471.00
2023-03-29T08:06:07.489Z,1864.00
2023-03-29T08:10:07.500Z,2059.00
2023-03-29T08:14:07.983Z,2209.00
2023-03-29T08:18:08.112Z,2287.00
2023-03-29T08:22:07.680Z,2358.00
2023-03-29T08:26:07.949Z,2451.00
2023-03-29T08:30:08.460Z,2510.00
2023-03-29T08:34:08.462Z,2527.00
2023-03-29T08:38:08.469Z,2552.00
2023-03-29T08:42:08.521Z,2491.00
2023-03-29T08:46:08.987Z,1874.00
2023-03-29T08:50:09.013Z,2435.00
2023-03-29T08:54:09.511Z,1911.00
2023-03-29T08:58:09.462Z,1589.00
2023-03-29T09:02:09.179Z,731.00
2023-03-29T09:06:09.466Z,1143.00
2023-03-29T09:10:09.498Z,1319.00
2023-03-29T09:14:09.488Z,1426.00
2023-03-29T09:18:09.714Z,1531.00
2023-03-29T09:22:10.001Z,1606.00
2023-03-29T09:26:09.977Z,1676.00
2023-03-29T09:30:10.001Z,1701.00
2023-03-29T09:34:10.492Z,1684.00
2023-03-29T09:38:10.229Z,1742.00
2023-03-29T09:42:10.468Z,1814.00
2023-03-29T09:46:10.513Z,1813.00
2023-03-29T09:50:22.978Z,1817.00
2023-03-29T09:54:11.499Z,1837.00
2023-03-29T09:58:10.567Z,1791.00
2023-03-29T10:02:10.780Z,1786.00
2023-03-29T10:06:10.995Z,1737.00
2023-03-29T10:10:11.217Z,1704.00
2023-03-29T10:14:11.368Z,1627.00
2023-03-29T10:18:11.382Z,1615.00
2023-03-29T10:22:11.304Z,1590.00
2023-03-29T10:26:11.268Z,1586.00
2023-03-29T10:30:11.235Z,1532.00
2023-03-29T10:34:11.922Z,1504.00
2023-03-29T10:38:11.164Z,1479.00
2023-03-29T10:42:11.532Z,1425.00
2023-03-29T10:46:11.585Z,1445.00
2023-03-29T10:50:11.510Z,1406.00
2023-03-29T10:54:10.994Z,1408.00
2023-03-29T10:58:11.492Z,1343.00
2023-03-29T11:02:11.271Z,1313.00
2023-03-29T11:06:11.492Z,1323.00
2023-03-29T11:10:12.046Z,1303.00
2023-03-29T11:14:11.758Z,1294.00
2023-03-29T11:18:12.027Z,1255.00
2023-03-29T11:22:12.523Z,1239.00
2023-03-29T11:26:12.505Z,1232.00
2023-03-29T11:30:12.091Z,1201.00
2023-03-29T11:34:12.049Z,1202.00
2023-03-29T11:38:12.194Z,1215.00
2023-03-29T11:42:11.985Z,1182.00
2023-03-29T11:46:12.005Z,1144.00
2023-03-29T11:50:11.893Z,1146.00
2023-03-29T11:54:11.856Z,1162.00
2023-03-29T11:58:11.814Z,1127.00
2023-03-29T12:02:11.963Z,1095.00
2023-03-29T12:06:12.080Z,1100.00
2023-03-29T12:10:12.115Z,1066.00
2023-03-29T12:14:12.532Z,1066.00
2023-03-29T12:18:12.538Z,1055.00
2023-03-29T12:22:12.509Z,1031.00
2023-03-29T12:26:13.051Z,1002.00
2023-03-29T12:30:12.819Z,1027.00
2023-03-29T12:34:12.907Z,974.00
2023-03-29T12:38:13.059Z,997.00
2023-03-29T12:42:13.131Z,989.00
2023-03-29T12:46:13.226Z,959.00
2023-03-29T12:50:13.304Z,941.00
2023-03-29T12:54:13.464Z,940.00
2023-03-29T12:58:13.498Z,918.00
2023-03-29T13:02:20.694Z,912.00
2023-03-29T13:06:13.535Z,926.00
2023-03-29T13:10:13.539Z,964.00
2023-03-29T13:14:13.494Z,981.00
2023-03-29T13:18:13.609Z,961.00
2023-03-29T13:22:13.409Z,967.00
2023-03-29T13:26:13.360Z,943.00
2023-03-29T13:30:13.322Z,941.00
2023-03-29T13:34:13.300Z,917.00
2023-03-29T13:38:13.349Z,914.00
2023-03-29T13:42:13.614Z,898.00
2023-03-29T13:46:13.178Z,892.00
2023-03-29T13:50:13.157Z,875.00
2023-03-29T13:54:13.176Z,867.00
2023-03-29T13:58:13.254Z,889.00
2023-03-29T14:02:13.410Z,866.00
2023-03-29T14:06:13.417Z,832.00
2023-03-29T14:10:13.478Z,840.00
2023-03-29T14:14:13.582Z,849.00
2023-03-29T14:18:13.640Z,816.00
2023-03-29T14:22:13.744Z,821.00
2023-03-29T14:26:14.101Z,805.00
2023-03-29T14:30:14.088Z,831.00
2023-03-29T14:34:14.125Z,813.00
2023-03-29T14:38:14.609Z,800.00
2023-03-29T14:42:14.237Z,811.00
2023-03-29T14:46:14.451Z,790.00
2023-03-29T14:50:14.626Z,776.00
2023-03-29T14:54:15.097Z,782.00
2023-03-29T14:58:15.113Z,781.00
2023-03-29T15:02:15.004Z,694.00
2023-03-29T15:06:14.957Z,730.00
2023-03-29T15:10:15.122Z,725.00
2023-03-29T15:14:15.022Z,703.00
2023-03-29T15:18:15.649Z,733.00
2023-03-29T15:22:15.210Z,699.00
2023-03-29T15:26:15.282Z,715.00
2023-03-29T15:30:15.626Z,727.00
2023-03-29T15:34:15.626Z,714.00
2023-03-29T15:38:15.605Z,726.00
2023-03-29T15:42:15.565Z,698.00
2023-03-29T15:46:15.655Z,709.00
2023-03-29T15:50:16.157Z,712.00
2023-03-29T15:54:16.148Z,725.00
2023-03-29T15:58:16.258Z,698.00
2023-03-29T16:02:16.088Z,666.00
2023-03-29T16:06:15.938Z,682.00
2023-03-29T16:10:16.125Z,699.00
2023-03-29T16:14:16.077Z,676.00
2023-03-29T16:18:16.161Z,697.00
2023-03-29T16:22:16.261Z,672.00
2023-03-29T16:26:16.645Z,659.00
2023-03-29T16:30:16.320Z,654.00
2023-03-29T16:34:16.676Z,664.00
2023-03-29T16:38:16.389Z,662.00
2023-03-29T16:42:16.420Z,648.00
2023-03-29T16:46:16.652Z,659.00
2023-03-29T16:50:16.581Z,665.00
2023-03-29T16:54:16.669Z,664.00
2023-03-29T16:58:16.612Z,667.00
2023-03-29T17:02:16.634Z,667.00
2023-03-29T17:06:16.722Z,650.00
2023-03-29T17:10:17.154Z,655.00
2023-03-29T17:14:16.823Z,652.00
2023-03-29T17:18:16.874Z,649.00
2023-03-29T17:22:17.144Z,648.00
2023-03-29T17:26:17.015Z,641.00
2023-03-29T17:30:17.135Z,646.00
2023-03-29T17:34:17.066Z,647.00
2023-03-29T17:38:17.200Z,641.00
2023-03-29T17:42:17.673Z,642.00
2023-03-29T17:46:17.301Z,645.00
2023-03-29T17:50:17.661Z,633.00
2023-03-29T17:54:17.409Z,635.00
2023-03-29T17:58:17.692Z,634.00
2023-03-29T18:02:17.561Z,640.00
2023-03-29T18:06:17.650Z,639.00
2023-03-29T18:10:17.773Z,641.00
2023-03-29T18:14:17.928Z,630.00
2023-03-29T18:18:18.717Z,624.00
2023-03-29T18:22:18.669Z,628.00
2023-03-29T18:26:18.657Z,632.00
2023-03-29T18:30:19.179Z,635.00
2023-03-29T18:34:18.925Z,623.00
2023-03-29T18:38:19.212Z,631.00
2023-03-29T18:42:19.178Z,624.00
2023-03-29T18:46:19.230Z,626.00
2023-03-29T18:50:19.189Z,625.00
2023-03-29T18:54:19.179Z,622.00
2023-03-29T18:58:19.189Z,626.00
2023-03-29T19:02:19.307Z,607.00
2023-03-29T19:06:19.712Z,626.00
2023-03-29T19:10:19.280Z,626.00
2023-03-29T19:14:19.351Z,619.00
2023-03-29T19:18:19.700Z,610.00
2023-03-29T19:22:20.204Z,622.00
2023-03-29T19:26:19.737Z,611.00
2023-03-29T19:30:19.562Z,613.00
2023-03-29T19:34:19.612Z,613.00
2023-03-29T19:38:19.692Z,604.00
2023-03-29T19:42:19.682Z,605.00
2023-03-29T19:46:20.206Z,615.00
2023-03-29T19:50:19.732Z,609.00
2023-03-29T19:54:20.201Z,607.00
2023-03-29T19:58:20.202Z,601.00
2023-03-29T20:02:19.914Z,605.00
2023-03-29T20:06:20.218Z,609.00
2023-03-29T20:10:20.073Z,617.00
2023-03-29T20:14:20.144Z,605.00
2023-03-29T20:18:20.213Z,602.00
2023-03-29T20:22:20.217Z,608.00
2023-03-29T20:26:20.735Z,604.00
2023-03-29T20:30:20.294Z,595.00
2023-03-29T20:34:20.384Z,600.00
2023-03-29T20:38:20.705Z,602.00
2023-03-29T20:42:20.438Z,586.00
2023-03-29T20:46:20.775Z,598.00
2023-03-29T20:50:20.514Z,593.00
2023-03-29T20:54:20.724Z,589.00
2023-03-29T20:58:20.760Z,597.00
2023-03-29T21:02:20.782Z,593.00
2023-03-29T21:06:20.750Z,598.00
2023-03-29T21:10:20.755Z,592.00
2023-03-29T21:14:21.265Z,587.00
2023-03-29T21:18:21.229Z,588.00
2023-03-29T21:22:20.883Z,593.00
2023-03-29T21:26:20.938Z,592.00
2023-03-29T21:30:21.257Z,587.00
2023-03-29T21:34:21.320Z,577.00
2023-03-29T21:38:21.262Z,574.00
2023-03-29T21:42:21.261Z,580.00
2023-03-29T21:46:21.216Z,583.00
2023-03-29T21:50:21.761Z,570.00
2023-03-29T21:54:21.408Z,584.00
2023-03-29T21:58:21.760Z,583.00
2023-03-29T22:02:21.644Z,564.00
2023-03-29T22:06:21.651Z,587.00
2023-03-29T22:10:21.735Z,576.00
2023-03-29T22:14:22.304Z,578.00
2023-03-29T22:18:21.813Z,576.00
2023-03-29T22:22:22.259Z,576.00
2023-03-29T22:26:21.905Z,581.00
2023-03-29T22:30:22.250Z,573.00
2023-03-29T22:34:22.252Z,568.00
2023-03-29T22:38:22.064Z,576.00
2023-03-29T22:42:22.252Z,569.00
2023-03-29T22:46:22.227Z,573.00
2023-03-29T22:50:22.285Z,576.00
2023-03-29T22:54:22.265Z,569.00
2023-03-29T22:58:22.790Z,564.00
2023-03-29T23:02:22.382Z,575.00
2023-03-29T23:06:22.360Z,572.00
2023-03-29T23:10:22.761Z,569.00
2023-03-29T23:14:22.788Z,565.00
2023-03-29T23:18:22.792Z,563.00
2023-03-29T23:22:22.597Z,567.00
2023-03-29T23:26:22.766Z,565.00
2023-03-29T23:30:22.765Z,560.00
2023-03-29T23:34:22.789Z,562.00
2023-03-29T23:38:22.805Z,563.00
2023-03-29T23:42:22.803Z,562.00
2023-03-29T23:46:23.300Z,562.00
2023-03-29T23:50:23.271Z,552.00
2023-03-29T23:54:22.977Z,555.00
